Avondale, Arizona
Current Conditions -  °F | °C
As of 8:47 PM on Sunday 25 Jan 2015 (Local Time) from KGYR Reporting Station
Broken Clouds Broken Clouds  
Wind Chill: 59°   Ceiling: 25000
Heat Index: 59°   Visibility: 10mi
Dew Point: 28°   Wind: 5mph
Humidity: 31%   Direction: NA
Pressure: 30.09"   Gusts: NA
Location:  33.44°N, 112.34°W
Report Text: KGYR 260347Z VRB04KT 10SM SCT200 BKN250 15/M02 A3009 RMK LAST
Loading
Personal Weather Stations






























Interactive Weather Map New forecast layout! Learn more

10-Day Weather Forecast

Advertisements
Track Severe Weather on mobile